Главная страница
METAR-TAF:

METAR-TAF

Аэропорты :

Penn Yan Airport

Penn Yan, Нью-Йорк, США

широта: 42-38-35N, долгота: 077-02-58W, высота над уровнем моря: 275 м

Текущие метеонаблюдения

Эта сводка был подготовлена 37 минут назад, в 20:53 UTC
Ветер 7 Узел от западно-северо-западный с порывами до 21 Узел, изменяющийся между западный и северно-северо-западный
Температура 8°C
Влажность 87%
Давление 1002 hPa
Видимость: 16.1 км
Сплошная облачность на высоте 1200 фута

METAR: KPEO 172053Z AUTO 29007G21KT 260V330 10SM OVC012 08/06 A2958 RMK AO2 PK WND 27026/2016 SLP019 60000 T00780056 53030

Время: 17:30 (21:30 UTC)


TAF: отсутствует

Метеонаблюдения и прогнозы для более 4000 аэропортов (сводки METAR и TAF).

Имеющиеся станции представлены на карте желтыми и красными точками.

Чтобы увидеть название станции, наведите на нее мышь.

Затем щелкните, чтобы увидеть метеонаблюдения и метеопрогнозы.

Управление картой: чтобы увеличить масштаб, щелкните зеленые кнопки с черным крестиком; чтобы уменьшить масштаб, щелкните зеленую кнопку с тире; для просмотра соседних карт щелкайте зеленые стрелки.


METAR-TAF: